Time;durP1;ratioP1;P1;durP2;ratioP2;P2;SDS_P1;SDS_P2;PMS_P1;PMS_P2;Temp;Humidity;BMP_temperature;BMP_pressure;BME280_temperature;BME280_humidity;BME280_pressure;Samples;Min_cycle;Max_cycle;Signal;HPM_P1;HPM_P2
2022/11/12 00:00:41;;;;;;;28.05;16.83;;;;;;;6.52;100.00;102770.06;5045708;28;20052;-74
2022/11/12 00:03:08;;;;;;;32.63;17.70;;;;;;;6.54;100.00;102776.09;5050577;28;20059;-72
2022/11/12 00:05:35;;;;;;;29.63;17.40;;;;;;;6.55;100.00;102782.41;5049514;28;20702;-72
2022/11/12 00:08:02;;;;;;;32.03;18.63;;;;;;;6.51;100.00;102773.97;5044309;28;20060;-72
2022/11/12 00:10:30;;;;;;;32.40;19.98;;;;;;;6.50;100.00;102775.09;5046128;28;20934;-73
2022/11/12 00:12:57;;;;;;;29.33;18.58;;;;;;;6.45;100.00;102774.44;5053534;28;20059;-74
2022/11/12 00:15:25;;;;;;;29.90;19.02;;;;;;;6.45;100.00;102783.50;5047658;28;20056;-73
2022/11/12 00:17:51;;;;;;;30.60;17.92;;;;;;;6.45;100.00;102779.94;5049886;28;20052;-73
2022/11/12 00:20:18;;;;;;;28.50;15.95;;;;;;;6.47;100.00;102781.25;5056396;28;20858;-74
2022/11/12 00:22:44;;;;;;;27.02;15.13;;;;;;;6.50;100.00;102783.34;5039296;28;20060;-71
2022/11/12 00:25:11;;;;;;;26.33;14.57;;;;;;;6.53;100.00;102779.16;5034307;28;20064;-71
2022/11/12 00:27:38;;;;;;;27.17;15.13;;;;;;;6.55;100.00;102787.91;5044224;28;20064;-72
2022/11/12 00:30:05;;;;;;;27.75;14.25;;;;;;;6.56;100.00;102784.00;5045858;28;20084;-74
2022/11/12 00:32:34;;;;;;;28.38;14.02;;;;;;;6.48;100.00;102787.56;5048477;28;20833;-73
2022/11/12 00:35:01;;;;;;;26.88;15.93;;;;;;;6.41;100.00;102793.50;5055189;28;20052;-71
2022/11/12 00:37:28;;;;;;;26.35;15.25;;;;;;;6.37;100.00;102789.78;5053681;28;20160;-71
2022/11/12 00:39:54;;;;;;;24.25;12.10;;;;;;;6.38;100.00;102793.34;5048147;28;20064;-72
2022/11/12 00:42:21;;;;;;;22.35;12.55;;;;;;;6.35;100.00;102794.78;5051902;28;20117;-73
2022/11/12 00:44:48;;;;;;;25.95;13.73;;;;;;;6.37;100.00;102794.47;5067390;28;20044;-72
2022/11/12 00:47:15;;;;;;;25.48;13.60;;;;;;;6.32;100.00;102791.88;5063194;28;20049;-73
2022/11/12 00:49:41;;;;;;;24.50;13.45;;;;;;;6.20;100.00;102797.97;5066477;28;20769;-71
2022/11/12 00:52:08;;;;;;;29.30;14.23;;;;;;;6.23;100.00;102802.03;5062029;28;20053;-71
2022/11/12 00:54:34;;;;;;;28.38;12.30;;;;;;;6.23;100.00;102799.28;5068227;28;20109;-71
2022/11/12 00:57:01;;;;;;;24.02;11.30;;;;;;;6.23;100.00;102796.53;5052911;28;20084;-72
2022/11/12 00:59:27;;;;;;;25.85;12.38;;;;;;;6.22;100.00;102803.16;5048182;28;20049;-72
2022/11/12 01:01:54;;;;;;;24.73;13.05;;;;;;;6.15;100.00;102802.81;5063653;28;20048;-72
2022/11/12 01:04:20;;;;;;;27.10;12.60;;;;;;;6.13;100.00;102800.38;5068481;28;20059;-71
2022/11/12 01:06:47;;;;;;;24.92;11.68;;;;;;;6.16;100.00;102801.69;5064925;28;20045;-72
2022/11/12 01:09:13;;;;;;;22.15;12.07;;;;;;;6.20;100.00;102797.16;5067660;28;20087;-70
2022/11/12 01:11:40;;;;;;;22.73;12.95;;;;;;;6.20;100.00;102794.41;5067191;28;20059;-72
2022/11/12 01:14:08;;;;;;;23.20;12.23;;;;;;;6.09;100.00;102798.56;5064858;28;20048;-72
2022/11/12 01:16:38;;;;;;;21.98;11.60;;;;;;;5.97;100.00;102801.13;5054157;28;20054;-72
2022/11/12 01:19:08;;;;;;;22.92;12.15;;;;;;;5.99;100.00;102801.59;5066737;28;20060;-71
2022/11/12 01:21:38;;;;;;;23.45;12.25;;;;;;;6.04;100.00;102804.22;5067205;28;20118;-72
2022/11/12 01:24:04;;;;;;;22.50;12.35;;;;;;;6.08;100.00;102805.22;5067178;28;20053;-71
2022/11/12 01:26:31;;;;;;;23.05;11.93;;;;;;;6.07;100.00;102804.38;5060572;28;20045;-72
2022/11/12 01:28:57;;;;;;;26.58;13.13;;;;;;;6.05;100.00;102801.16;5062678;28;20049;-73
2022/11/12 01:31:25;;;;;;;26.42;13.15;;;;;;;6.03;100.00;102799.84;5067524;28;20505;-70
2022/11/12 01:33:57;;;;;;;24.20;13.80;;;;;;;6.01;100.00;102804.84;5067716;28;20053;-71
2022/11/12 01:36:25;;;;;;;21.80;13.02;;;;;;;5.96;100.00;102802.22;5064265;28;20051;-71
2022/11/12 01:38:53;;;;;;;24.35;12.40;;;;;;;5.97;100.00;102806.63;5063506;28;20056;-71
2022/11/12 01:41:27;;;;;;;23.88;12.40;;;;;;;5.96;100.00;102808.56;5062262;28;20054;-71
2022/11/12 01:44:19;;;;;;;25.40;12.00;;;;;;;6.01;100.00;102810.34;5054063;28;20041;-71
2022/11/12 01:46:45;;;;;;;24.45;11.82;;;;;;;5.97;100.00;102807.41;5059576;28;20056;-71
2022/11/12 01:49:30;;;;;;;23.92;11.45;;;;;;;5.91;100.00;102805.13;5065458;28;20052;-71
2022/11/12 01:52:07;;;;;;;21.40;11.07;;;;;;;5.90;100.00;102800.78;5068161;28;20056;-71
2022/11/12 01:54:34;;;;;;;19.98;10.65;;;;;;;5.88;100.00;102803.00;5064094;28;20041;-71
2022/11/12 01:57:01;;;;;;;22.58;11.75;;;;;;;5.89;100.00;102802.69;5064812;28;20125;-72
2022/11/12 01:59:43;;;;;;;23.52;11.40;;;;;;;5.82;100.00;102809.75;5067682;28;20134;-73
2022/11/12 02:02:11;;;;;;;21.30;11.43;;;;;;;5.81;100.00;102810.84;5066644;28;20065;-72
2022/11/12 02:04:39;;;;;;;22.45;10.57;;;;;;;5.82;100.00;102812.50;5062009;28;20044;-72
2022/11/12 02:07:07;;;;;;;22.15;10.20;;;;;;;5.83;100.00;102805.88;5064702;28;20052;-73
2022/11/12 02:09:35;;;;;;;22.90;11.40;;;;;;;5.81;100.00;102799.88;5063060;28;20456;-72
2022/11/12 02:12:01;;;;;;;24.45;11.52;;;;;;;5.76;100.00;102802.72;5047193;28;20567;-73
2022/11/12 02:14:29;;;;;;;22.27;10.18;;;;;;;5.75;100.00;102801.94;5047318;28;20057;-73
2022/11/12 02:16:56;;;;;;;20.25;11.05;;;;;;;5.73;100.00;102803.41;5047449;28;20811;-71
2022/11/12 02:19:23;;;;;;;21.10;11.30;;;;;;;5.72;100.00;102794.34;5046740;28;20123;-71
2022/11/12 02:21:49;;;;;;;17.98;10.07;;;;;;;5.75;100.00;102793.69;5065958;28;20059;-70
2022/11/12 02:24:16;;;;;;;22.10;10.20;;;;;;;5.74;100.00;102786.56;5069215;28;20064;-74
2022/11/12 02:26:47;;;;;;;24.52;11.43;;;;;;;5.67;100.00;102788.94;5068383;28;20059;-72
2022/11/12 02:29:14;;;;;;;20.65;10.63;;;;;;;5.64;100.00;102786.03;5071399;28;20056;-72
2022/11/12 02:31:40;;;;;;;20.23;10.57;;;;;;;5.61;100.00;102781.16;5069019;28;20097;-71
2022/11/12 02:34:07;;;;;;;18.70;9.82;;;;;;;5.59;100.00;102784.22;5068960;28;20056;-72
2022/11/12 02:36:33;;;;;;;18.58;9.35;;;;;;;5.56;100.00;102778.56;5067362;28;20053;-72
2022/11/12 02:39:00;;;;;;;19.77;10.57;;;;;;;5.57;100.00;102780.19;5066355;28;20104;-72
2022/11/12 02:41:26;;;;;;;18.17;8.60;;;;;;;5.56;100.00;102778.56;5066699;28;20807;-73
2022/11/12 02:43:52;;;;;;;18.30;9.35;;;;;;;5.58;100.00;102776.31;5069962;28;20052;-72
2022/11/12 02:46:19;;;;;;;19.13;9.95;;;;;;;5.50;100.00;102777.06;5063809;28;20044;-72
2022/11/12 02:48:45;;;;;;;21.35;9.98;;;;;;;5.54;100.00;102781.63;5053397;28;20057;-73
2022/11/12 02:51:12;;;;;;;19.60;9.75;;;;;;;5.55;100.00;102787.91;5067863;28;20098;-72
2022/11/12 02:53:38;;;;;;;19.77;9.15;;;;;;;5.47;100.00;102773.81;5070074;28;20513;-70
2022/11/12 02:56:05;;;;;;;17.77;8.93;;;;;;;5.52;100.00;102785.78;5070861;28;20045;-72
2022/11/12 02:58:32;;;;;;;17.70;9.52;;;;;;;5.51;100.00;102782.25;5052066;28;20056;-72
2022/11/12 03:00:58;;;;;;;18.52;9.25;;;;;;;5.47;100.00;102780.44;5051574;28;20049;-71
2022/11/12 03:03:25;;;;;;;19.02;10.15;;;;;;;5.53;100.00;102792.91;5068461;28;20449;-73
2022/11/12 03:06:00;;;;;;;22.67;9.65;;;;;;;5.41;100.00;102788.78;5065147;28;20170;-73
2022/11/12 03:08:26;;;;;;;18.77;9.77;;;;;;;5.41;100.00;102794.28;5070777;28;20139;-70
2022/11/12 03:10:53;;;;;;;19.85;9.50;;;;;;;5.38;100.00;102789.44;5068356;28;20048;-71
2022/11/12 03:13:20;;;;;;;15.85;9.00;;;;;;;5.38;100.00;102783.94;5064285;28;20395;-72
2022/11/12 03:15:47;;;;;;;19.63;9.75;;;;;;;5.36;100.00;102782.63;5056293;28;20463;-71
2022/11/12 03:18:13;;;;;;;20.58;9.63;;;;;;;5.36;100.00;102780.69;5069514;28;20053;-74
2022/11/12 03:20:40;;;;;;;21.77;10.38;;;;;;;5.38;100.00;102783.94;5068781;28;20064;-72
2022/11/12 03:23:09;;;;;;;22.60;11.05;;;;;;;5.38;100.00;102775.72;5069368;28;20083;-70
2022/11/12 03:25:36;;;;;;;21.63;10.25;;;;;;;5.39;100.00;102782.81;5069560;28;20422;-72
2022/11/12 03:28:08;;;;;;;21.90;9.35;;;;;;;5.39;100.00;102788.31;5070510;28;20052;-71
2022/11/12 03:30:38;;;;;;;18.30;9.57;;;;;;;5.36;100.00;102777.94;5052507;28;20421;-70
2022/11/12 03:33:07;;;;;;;21.63;9.85;;;;;;;5.36;100.00;102775.19;5049456;28;20053;-70
2022/11/12 03:35:34;;;;;;;21.70;8.98;;;;;;;5.36;100.00;102782.63;5051809;28;20053;-70
2022/11/12 03:38:01;;;;;;;18.25;8.88;;;;;;;5.32;100.00;102782.44;5069423;28;20048;-70
2022/11/12 03:40:28;;;;;;;23.38;9.95;;;;;;;5.35;100.00;102776.34;5067862;28;20063;-73
2022/11/12 03:42:55;;;;;;;25.35;11.02;;;;;;;5.31;100.00;102780.81;5067900;28;20052;-73
2022/11/12 03:45:24;;;;;;;23.58;9.88;;;;;;;5.30;100.00;102779.19;5066507;28;20056;-72
2022/11/12 03:47:53;;;;;;;18.70;8.55;;;;;;;5.29;100.00;102785.81;5067400;28;20040;-73
2022/11/12 03:50:22;;;;;;;18.08;8.43;;;;;;;5.26;100.00;102780.94;5068253;28;20060;-73
2022/11/12 03:52:51;;;;;;;21.45;10.68;;;;;;;5.17;100.00;102780.06;5069341;28;20171;-71
2022/11/12 03:55:20;;;;;;;20.27;9.48;;;;;;;5.07;100.00;102777.56;5068844;28;20558;-73
2022/11/12 03:57:48;;;;;;;20.15;9.25;;;;;;;5.12;100.00;102777.44;5050848;28;20114;-73
2022/11/12 04:00:15;;;;;;;18.38;9.02;;;;;;;5.17;100.00;102768.28;5056200;28;20049;-73
2022/11/12 04:02:42;;;;;;;17.65;9.30;;;;;;;5.20;100.00;102762.97;5067190;28;20523;-73
2022/11/12 04:10:47;;;;;;;23.20;10.32;;;;;;;5.18;100.00;102751.50;5052093;28;20535;-72
2022/11/12 04:13:29;;;;;;;21.45;10.90;;;;;;;5.18;100.00;102756.19;5068429;28;20070;-70
2022/11/12 04:22:09;;;;;;;24.20;11.10;;;;;;;5.12;100.00;102744.53;5063805;28;20056;-70
2022/11/12 04:27:31;;;;;;;21.25;10.95;;;;;;;5.16;100.00;102734.53;5067576;28;20153;-72
2022/11/12 04:30:18;;;;;;;21.88;10.27;;;;;;;5.14;100.00;102734.03;5067730;28;20080;-71
2022/11/12 04:32:51;;;;;;;21.17;9.95;;;;;;;4.98;100.00;102731.97;5051324;28;20459;-72
2022/11/12 04:35:18;;;;;;;20.77;11.02;;;;;;;4.96;100.00;102728.72;5048728;28;20434;-71
2022/11/12 04:37:44;;;;;;;20.63;9.32;;;;;;;4.98;100.00;102734.72;5049983;28;20060;-73
2022/11/12 04:45:52;;;;;;;25.67;11.43;;;;;;;5.01;100.00;102726.69;5058436;28;20053;-72
2022/11/12 04:48:20;;;;;;;22.35;10.88;;;;;;;4.99;100.00;102723.44;5067695;28;20055;-72
2022/11/12 04:50:51;;;;;;;20.63;10.27;;;;;;;5.00;100.00;102727.00;5067937;28;20056;-72
2022/11/12 04:53:17;;;;;;;21.67;10.70;;;;;;;4.98;100.00;102730.06;5065047;28;20044;-74
2022/11/12 04:55:44;;;;;;;21.23;11.07;;;;;;;4.98;100.00;102732.78;5062252;28;20507;-73
2022/11/12 04:58:11;;;;;;;20.90;10.18;;;;;;;4.96;100.00;102735.03;5067072;28;20045;-71
2022/11/12 05:00:37;;;;;;;25.55;10.93;;;;;;;4.94;100.00;102733.72;5060051;28;20041;-73
2022/11/12 05:03:04;;;;;;;21.27;10.57;;;;;;;4.91;100.00;102735.16;5063736;28;20048;-73
2022/11/12 05:05:30;;;;;;;21.15;11.57;;;;;;;4.92;100.00;102725.81;5068571;28;20074;-73
2022/11/12 05:08:01;;;;;;;19.98;10.23;;;;;;;4.94;100.00;102728.25;5066622;28;20060;-73
2022/11/12 05:10:27;;;;;;;20.35;10.52;;;;;;;4.97;100.00;102731.16;5051022;28;20059;-70
2022/11/12 05:12:54;;;;;;;20.40;10.07;;;;;;;4.92;100.00;102728.53;5056695;28;20056;-73
2022/11/12 05:15:20;;;;;;;19.63;10.13;;;;;;;4.95;100.00;102727.09;5068575;28;20060;-73
2022/11/12 05:17:47;;;;;;;22.83;9.93;;;;;;;4.97;100.00;102724.88;5068725;28;20082;-71
2022/11/12 05:20:14;;;;;;;19.58;10.70;;;;;;;4.94;100.00;102725.50;5067632;28;20058;-72
2022/11/12 05:22:40;;;;;;;22.15;11.38;;;;;;;4.90;100.00;102719.81;5066151;28;20052;-72
2022/11/12 05:25:15;;;;;;;21.55;11.05;;;;;;;4.92;100.00;102720.31;5065722;28;20045;-69
2022/11/12 05:27:42;;;;;;;19.88;9.77;;;;;;;4.87;100.00;102717.69;5051702;28;20060;-71
2022/11/12 05:30:09;;;;;;;21.83;10.65;;;;;;;4.83;100.00;102708.44;5047003;28;20498;-73
2022/11/12 05:32:36;;;;;;;22.80;10.50;;;;;;;4.79;100.00;102706.63;5048050;28;20052;-73
2022/11/12 05:35:03;;;;;;;19.52;9.75;;;;;;;4.79;100.00;102707.47;5059567;28;20126;-71
2022/11/12 05:37:29;;;;;;;20.25;10.07;;;;;;;4.77;100.00;102698.75;5060610;28;20052;-71
2022/11/12 05:39:55;;;;;;;22.35;10.38;;;;;;;4.83;100.00;102704.91;5062247;28;20528;-72
2022/11/12 05:42:22;;;;;;;19.45;9.77;;;;;;;4.84;100.00;102695.56;5056281;28;20063;-74
2022/11/12 05:44:48;;;;;;;19.67;9.27;;;;;;;4.82;100.00;102698.59;5066093;28;20047;-69
2022/11/12 05:47:15;;;;;;;22.83;10.77;;;;;;;4.81;100.00;102693.44;5055998;28;20053;-71
2022/11/12 05:49:42;;;;;;;22.92;10.52;;;;;;;4.76;100.00;102694.34;5065919;28;20044;-72
2022/11/12 05:52:08;;;;;;;21.73;10.32;;;;;;;4.74;100.00;102698.53;5068009;28;20055;-72
2022/11/12 05:54:35;;;;;;;19.08;9.50;;;;;;;4.72;100.00;102698.03;5067274;28;20131;-72
2022/11/12 05:57:01;;;;;;;18.63;9.43;;;;;;;4.73;100.00;102708.69;5068149;28;20061;-72
2022/11/12 05:59:27;;;;;;;23.00;10.55;;;;;;;4.69;100.00;102695.94;5063867;28;20053;-72
2022/11/12 06:01:54;;;;;;;20.13;9.63;;;;;;;4.73;100.00;102703.22;5064627;28;20499;-72
2022/11/12 06:04:22;;;;;;;20.38;10.32;;;;;;;4.71;100.00;102694.50;5071745;28;20070;-72
2022/11/12 06:06:48;;;;;;;20.13;10.13;;;;;;;4.72;100.00;102696.09;5071182;28;20041;-75
2022/11/12 06:09:14;;;;;;;19.77;10.07;;;;;;;4.72;100.00;102701.59;5068390;28;20084;-71
2022/11/12 06:11:41;;;;;;;22.75;11.88;;;;;;;4.72;100.00;102700.78;5064305;28;20048;-70
2022/11/12 06:14:07;;;;;;;17.88;8.95;;;;;;;4.73;100.00;102703.22;5065580;28;20075;-69
2022/11/12 06:16:34;;;;;;;22.25;9.60;;;;;;;4.70;100.00;102706.56;5066423;28;20052;-71
2022/11/12 06:19:00;;;;;;;20.77;10.18;;;;;;;4.65;100.00;102705.88;5071194;28;20056;-71
2022/11/12 06:21:27;;;;;;;18.92;9.55;;;;;;;4.61;100.00;102719.41;5069922;28;20056;-72
2022/11/12 06:23:56;;;;;;;19.25;10.40;;;;;;;4.61;100.00;102705.69;5071468;28;20059;-72
2022/11/12 06:26:25;;;;;;;20.13;10.13;;;;;;;4.62;100.00;102712.78;5070620;28;20059;-71
2022/11/12 06:28:52;;;;;;;23.10;10.45;;;;;;;4.59;100.00;102712.63;5067234;28;20056;-70
2022/11/12 06:31:19;;;;;;;19.75;10.23;;;;;;;4.58;100.00;102714.53;5052591;28;20144;-73
2022/11/12 06:33:46;;;;;;;23.48;9.60;;;;;;;4.60;100.00;102720.53;5050245;28;20061;-71
2022/11/12 06:36:15;;;;;;;19.45;9.73;;;;;;;4.58;100.00;102716.47;5056876;28;20052;-71
2022/11/12 06:38:43;;;;;;;30.55;11.95;;;;;;;4.58;100.00;102717.28;5070814;28;20046;-72
2022/11/12 06:41:11;;;;;;;18.33;8.80;;;;;;;4.55;100.00;102717.91;5069445;28;20689;-71
2022/11/12 06:43:38;;;;;;;20.25;9.15;;;;;;;4.55;100.00;102723.38;5067159;28;20053;-73
2022/11/12 06:46:11;;;;;;;22.88;10.13;;;;;;;4.56;100.00;102737.91;5069995;28;20075;-72
2022/11/12 06:48:39;;;;;;;20.20;9.70;;;;;;;4.56;100.00;102738.69;5058875;28;20449;-74
2022/11/12 06:51:08;;;;;;;18.40;9.20;;;;;;;4.55;100.00;102742.56;5069414;28;20052;-71
2022/11/12 06:53:34;;;;;;;17.50;8.68;;;;;;;4.54;100.00;102745.63;5059114;28;20052;-71
2022/11/12 06:56:05;;;;;;;20.92;10.07;;;;;;;4.55;100.00;102749.97;5051710;28;20464;-70
2022/11/12 06:58:32;;;;;;;18.52;8.88;;;;;;;4.51;100.00;102740.75;5056039;28;20058;-71
2022/11/12 07:01:19;;;;;;;20.02;10.05;;;;;;;4.44;100.00;102735.69;5062790;28;20079;-69
2022/11/12 07:03:45;;;;;;;22.88;9.55;;;;;;;4.57;100.00;102747.75;5050010;28;20159;-72
2022/11/12 07:06:17;;;;;;;21.88;9.95;;;;;;;4.59;100.00;102751.81;5050478;28;20060;-70
2022/11/12 07:08:44;;;;;;;21.88;9.68;;;;;;;4.63;100.00;102757.50;5063505;28;20056;-72
2022/11/12 07:11:11;;;;;;;21.23;10.50;;;;;;;4.66;100.00;102768.63;5050429;28;20045;-72
2022/11/12 07:13:38;;;;;;;22.38;10.27;;;;;;;4.66;100.00;102771.38;5053003;28;20057;-72
2022/11/12 07:16:06;;;;;;;20.25;9.77;;;;;;;4.67;100.00;102759.31;5056891;28;20048;-71
2022/11/12 07:18:34;;;;;;;22.13;10.27;;;;;;;4.70;100.00;102761.41;5070043;28;20087;-73
2022/11/12 07:21:04;;;;;;;19.95;9.85;;;;;;;4.74;100.00;102759.69;5065428;28;20059;-71
2022/11/12 07:23:33;;;;;;;20.15;10.48;;;;;;;4.74;100.00;102759.69;5070004;28;20098;-72
2022/11/12 07:26:22;;;;;;;26.08;12.68;;;;;;;4.76;100.00;102760.19;5068027;28;20064;-70
2022/11/12 07:28:51;;;;;;;21.58;10.77;;;;;;;4.79;100.00;102765.06;5066872;28;20047;-73
2022/11/12 07:31:19;;;;;;;24.42;11.38;;;;;;;4.79;100.00;102754.09;5064455;28;20602;-71
2022/11/12 07:33:47;;;;;;;20.20;9.77;;;;;;;4.84;100.00;102753.97;5061719;28;20067;-72
2022/11/12 07:36:16;;;;;;;21.58;8.82;;;;;;;4.89;100.00;102745.63;5065853;28;20098;-71
2022/11/12 07:38:43;;;;;;;21.83;10.00;;;;;;;4.96;100.00;102758.91;5072350;28;20066;-72
2022/11/12 07:41:19;;;;;;;20.90;10.95;;;;;;;4.99;100.00;102759.09;5064465;28;20053;-72
2022/11/12 07:43:49;;;;;;;21.60;11.38;;;;;;;5.05;100.00;102760.59;5066546;28;20102;-69
2022/11/12 07:46:18;;;;;;;23.55;11.77;;;;;;;5.11;100.00;102759.38;5067861;28;20056;-72
2022/11/12 07:48:45;;;;;;;18.60;10.13;;;;;;;5.13;100.00;102762.59;5048418;28;20061;-71
2022/11/12 07:51:23;;;;;;;22.83;10.40;;;;;;;5.19;100.00;102757.78;5048619;28;20049;-73
2022/11/12 07:53:52;;;;;;;23.10;9.75;;;;;;;5.20;100.00;102756.69;5070612;28;20063;-72
2022/11/12 07:56:26;;;;;;;21.33;10.55;;;;;;;5.26;100.00;102760.91;5066249;28;20113;-72
2022/11/12 07:58:53;;;;;;;22.45;11.07;;;;;;;5.34;100.00;102768.41;5068788;28;20059;-70
2022/11/12 08:01:19;;;;;;;22.98;11.57;;;;;;;5.43;100.00;102768.47;5068750;28;20068;-71
2022/11/12 08:03:46;;;;;;;21.38;10.38;;;;;;;5.51;100.00;102770.44;5068713;28;20428;-74
2022/11/12 08:06:12;;;;;;;22.83;10.32;;;;;;;5.55;100.00;102753.03;5062747;28;20045;-76
2022/11/12 08:08:39;;;;;;;25.45;10.45;;;;;;;5.64;100.00;102753.91;5055919;28;20511;-71
2022/11/12 08:11:05;;;;;;;20.63;11.05;;;;;;;5.72;100.00;102757.78;5068107;28;20056;-73
2022/11/12 08:13:32;;;;;;;21.25;10.35;;;;;;;5.82;100.00;102766.63;5069139;28;20052;-71
2022/11/12 08:15:58;;;;;;;23.45;11.07;;;;;;;5.88;100.00;102768.09;5065137;28;20095;-71
2022/11/12 08:18:26;;;;;;;23.92;13.50;;;;;;;5.96;100.00;102772.00;5066782;28;20048;-70
2022/11/12 08:20:59;;;;;;;22.20;11.45;;;;;;;6.08;100.00;102770.31;5063934;28;20068;-72
2022/11/12 08:23:25;;;;;;;26.35;11.27;;;;;;;6.18;100.00;102769.19;5053364;28;20579;-70
2022/11/12 08:25:55;;;;;;;22.50;11.98;;;;;;;6.26;100.00;102768.41;5065175;28;20059;-71
2022/11/12 08:28:22;;;;;;;26.23;12.77;;;;;;;6.38;100.00;102780.41;5058876;28;20489;-71
2022/11/12 08:30:49;;;;;;;25.27;13.35;;;;;;;6.52;100.00;102777.53;5055673;28;20145;-68
2022/11/12 08:33:15;;;;;;;26.30;13.55;;;;;;;6.62;100.00;102769.78;5053174;28;20057;-67
2022/11/12 08:35:42;;;;;;;26.05;13.85;;;;;;;6.79;100.00;102774.50;5057025;28;20425;-71
2022/11/12 08:38:09;;;;;;;25.58;12.68;;;;;;;6.94;100.00;102772.09;5060115;28;20044;-70
2022/11/12 08:40:36;;;;;;;23.52;13.05;;;;;;;7.11;100.00;102768.50;5056326;28;20052;-71
2022/11/12 08:43:05;;;;;;;28.95;13.65;;;;;;;7.26;100.00;102779.06;5059521;28;20060;-71
2022/11/12 08:45:33;;;;;;;22.40;12.02;;;;;;;7.42;100.00;102771.88;5047314;28;20091;-71
2022/11/12 08:48:04;;;;;;;21.98;10.88;;;;;;;7.60;100.00;102773.50;5064253;28;20063;-71
2022/11/12 08:50:32;;;;;;;22.63;11.98;;;;;;;7.77;100.00;102765.97;5050325;28;20085;-71
2022/11/12 08:53:00;;;;;;;24.70;11.07;;;;;;;7.97;100.00;102769.97;5063121;28;20052;-70
2022/11/12 08:55:28;;;;;;;21.60;10.85;;;;;;;8.16;100.00;102766.81;5064729;28;20060;-70
2022/11/12 08:58:00;;;;;;;24.90;11.65;;;;;;;8.34;100.00;102762.84;5056296;28;20048;-72
2022/11/12 09:00:33;;;;;;;22.70;11.30;;;;;;;8.49;100.00;102757.56;5047284;28;20056;-73
2022/11/12 09:03:00;;;;;;;22.60;12.00;;;;;;;8.76;100.00;102765.31;5046857;28;20130;-73
2022/11/12 09:05:27;;;;;;;22.10;11.13;;;;;;;8.98;100.00;102764.19;5054854;28;20044;-72
2022/11/12 09:08:02;;;;;;;24.00;10.25;;;;;;;9.20;100.00;102758.28;5059382;28;20521;-70
2022/11/12 09:10:29;;;;;;;;;;;;;;;9.43;100.00;102767.84;5065470;28;20045;-70
2022/11/12 09:12:56;;;;;;;20.08;9.68;;;;;;;9.60;100.00;102768.47;5054990;28;19924;-73
2022/11/12 09:15:24;;;;;;;20.75;10.57;;;;;;;9.80;100.00;102767.59;5059303;28;20049;-71
2022/11/12 09:18:09;;;;;;;19.35;10.88;;;;;;;10.02;100.00;102767.16;5051376;28;20580;-73
2022/11/12 09:20:36;;;;;;;18.02;8.98;;;;;;;10.28;100.00;102761.31;5065244;28;20517;-71
2022/11/12 09:23:06;;;;;;;19.27;10.15;;;;;;;10.50;100.00;102772.72;5067844;28;20444;-70
2022/11/12 09:25:33;;;;;;;21.92;9.70;;;;;;;10.71;100.00;102774.53;5066967;28;20059;-72
2022/11/12 09:28:14;;;;;;;23.52;9.95;;;;;;;10.91;100.00;102781.88;5068462;28;20401;-71
2022/11/12 09:30:45;;;;;;;20.48;9.85;;;;;;;11.05;100.00;102768.47;5066985;28;20509;-71
2022/11/12 09:33:16;;;;;;;20.27;10.25;;;;;;;11.23;100.00;102770.59;5072122;28;20493;-71
2022/11/12 09:35:44;;;;;;;18.33;9.45;;;;;;;11.41;100.00;102766.34;5063894;28;20422;-71
2022/11/12 09:38:11;;;;;;;21.95;9.10;;;;;;;11.62;100.00;102778.06;5068356;28;20083;-70
2022/11/12 09:40:49;;;;;;;19.40;7.93;;;;;;;11.83;100.00;102767.53;5070412;28;20072;-71
2022/11/12 09:43:40;;;;;;;19.10;8.38;;;;;;;12.07;100.00;102766.56;5068726;28;20697;-73
2022/11/12 09:46:35;;;;;;;18.50;8.65;;;;;;;12.30;100.00;102771.13;5071706;28;20048;-73
2022/11/12 09:49:15;;;;;;;21.60;11.13;;;;;;;12.48;100.00;102772.34;5069155;28;20052;-73
2022/11/12 09:51:50;;;;;;;17.42;8.70;;;;;;;12.68;100.00;102775.97;5063685;28;20303;-70
2022/11/12 09:54:20;;;;;;;19.80;9.60;;;;;;;12.90;100.00;102767.72;5068672;28;20044;-71
2022/11/12 09:56:48;;;;;;;19.35;8.43;;;;;;;13.10;100.00;102771.38;5067448;28;20056;-71
2022/11/12 09:59:15;;;;;;;17.60;8.30;;;;;;;13.30;100.00;102777.75;5069467;28;20048;-72
2022/11/12 10:01:52;;;;;;;18.67;8.68;;;;;;;13.48;100.00;102781.69;5065418;28;20049;-72
2022/11/12 10:05:07;;;;;;;18.17;7.85;;;;;;;13.72;100.00;102776.59;5070225;28;20094;-70
2022/11/12 10:08:02;;;;;;;16.50;7.18;;;;;;;13.97;100.00;102777.84;5060001;28;20044;-72
2022/11/12 10:10:32;;;;;;;15.70;6.95;;;;;;;14.20;100.00;102775.84;5062459;28;20575;-70
2022/11/12 10:13:23;;;;;;;13.95;6.35;;;;;;;14.39;100.00;102773.03;5068653;28;20512;-70
2022/11/12 10:18:58;;;;;;;15.15;7.13;;;;;;;14.81;100.00;102772.84;5052085;28;20425;-73
2022/11/12 10:21:39;;;;;;;15.30;6.60;;;;;;;15.06;100.00;102774.00;5049822;28;20055;-71
2022/11/12 10:24:10;;;;;;;15.02;6.57;;;;;;;15.30;97.68;102774.28;5055087;28;20523;-74
2022/11/12 10:26:38;;;;;;;12.45;5.47;;;;;;;15.56;97.27;102772.63;5069552;28;20059;-72
2022/11/12 10:29:23;;;;;;;14.32;5.75;;;;;;;15.83;91.68;102765.75;5063413;28;20072;-71
2022/11/12 10:31:50;;;;;;;15.40;7.18;;;;;;;16.14;90.66;102752.06;5064830;28;20041;-73
2022/11/12 10:34:19;;;;;;;12.18;5.22;;;;;;;16.39;89.62;102753.06;5064799;28;20131;-69
2022/11/12 10:37:24;;;;;;;8.80;4.32;;;;;;;16.74;84.38;102758.09;5068928;28;20071;-69
2022/11/12 10:39:51;;;;;;;11.30;5.22;;;;;;;17.31;82.33;102754.34;5064120;28;20056;-70
2022/11/12 10:42:22;;;;;;;14.35;4.90;;;;;;;17.83;81.37;102751.72;5063123;28;20063;-71
2022/11/12 10:44:48;;;;;;;14.93;5.82;;;;;;;18.41;80.95;102756.97;5065146;28;20037;-72
2022/11/12 10:47:22;;;;;;;10.43;5.05;;;;;;;19.06;75.69;102750.78;5065922;28;20053;-72
2022/11/12 10:50:07;;;;;;;12.80;5.20;;;;;;;19.65;67.39;102752.50;5053527;28;20832;-71
2022/11/12 10:52:34;;;;;;;12.95;5.70;;;;;;;20.27;67.95;102742.03;5063127;28;20056;-70
2022/11/12 10:55:23;;;;;;;12.52;4.70;;;;;;;20.69;63.38;102730.34;5054169;28;20131;-71
2022/11/12 10:58:25;;;;;;;9.25;4.13;;;;;;;21.39;55.72;102726.66;5063199;28;20052;-74
2022/11/12 11:00:55;;;;;;;16.25;4.40;;;;;;;21.88;54.78;102717.50;5065692;28;20064;-72
2022/11/12 11:03:24;;;;;;;10.35;3.88;;;;;;;22.58;53.37;102724.72;5047132;28;20505;-74
2022/11/12 11:05:55;;;;;;;9.95;4.13;;;;;;;23.72;48.07;102727.53;5059733;28;20403;-69
2022/11/12 11:08:51;;;;;;;11.60;4.45;;;;;;;24.39;42.79;102728.69;5060994;28;20432;-71
2022/11/12 11:11:20;;;;;;;8.30;4.15;;;;;;;24.55;45.04;102720.16;5060883;28;20052;-72
2022/11/12 11:13:49;;;;;;;13.23;4.53;;;;;;;24.83;44.73;102719.38;5058468;28;20057;-73
2022/11/12 11:16:25;;;;;;;10.40;4.25;;;;;;;25.18;41.68;102721.97;5050273;28;20513;-71
2022/11/12 11:18:58;;;;;;;8.52;3.85;;;;;;;25.76;38.84;102713.31;5049269;28;20056;-73
2022/11/12 11:21:39;;;;;;;11.95;4.40;;;;;;;26.14;36.26;102711.22;5055033;28;20088;-71
2022/11/12 11:24:24;;;;;;;9.17;4.60;;;;;;;26.27;39.87;102709.16;5050874;28;20057;-69
2022/11/12 11:27:15;;;;;;;11.15;3.78;;;;;;;26.13;36.47;102713.28;5059256;28;20055;-72
2022/11/12 11:29:54;;;;;;;8.90;3.80;;;;;;;25.59;36.58;102703.34;5051640;28;20540;-72
2022/11/12 11:32:42;;;;;;;11.52;4.97;;;;;;;25.40;37.45;102701.50;5042535;28;20048;-73
2022/11/12 11:35:11;;;;;;;9.93;4.00;;;;;;;25.89;37.99;102702.75;5041198;28;20045;-73
2022/11/12 11:37:53;;;;;;;9.30;4.05;;;;;;;26.28;35.99;102702.22;5051332;28;20052;-73
2022/11/12 11:40:36;;;;;;;11.15;4.53;;;;;;;26.26;36.83;102699.84;5048856;28;20543;-73
2022/11/12 11:43:18;;;;;;;10.15;4.45;;;;;;;26.00;35.09;102704.00;5048155;28;20063;-73
2022/11/12 11:46:04;;;;;;;12.80;4.82;;;;;;;25.82;34.21;102697.31;5050647;28;20067;-74
2022/11/12 11:48:49;;;;;;;;;;;;;;;25.65;33.13;102693.00;5044012;28;20052;-71